sensor_id;sensor_type;location;lat;lon;timestamp;pressure;altitude;pressure_sealevel;temperature;humidity
62508;BME280;48556;51.972;4.624;2023-03-01T00:00:15;103229.19;;;5.37;65.52
62508;BME280;48556;51.972;4.624;2023-03-01T00:03:05;103222.09;;;5.16;66.01
62508;BME280;48556;51.972;4.624;2023-03-01T00:06:06;103214.94;;;5.30;65.49
62508;BME280;48556;51.972;4.624;2023-03-01T00:08:50;103227.09;;;5.29;65.22
62508;BME280;48556;51.972;4.624;2023-03-01T00:11:25;103207.22;;;5.13;65.82
62508;BME280;48556;51.972;4.624;2023-03-01T00:13:59;103218.47;;;5.12;65.42
62508;BME280;48556;51.972;4.624;2023-03-01T00:16:54;103216.88;;;5.16;65.49
62508;BME280;48556;51.972;4.624;2023-03-01T00:19:54;103210.03;;;5.18;64.97
62508;BME280;48556;51.972;4.624;2023-03-01T00:22:20;103202.75;;;5.11;65.27
62508;BME280;48556;51.972;4.624;2023-03-01T00:25:06;103201.47;;;5.03;65.08
62508;BME280;48556;51.972;4.624;2023-03-01T00:27:50;103196.13;;;5.00;64.69
62508;BME280;48556;51.972;4.624;2023-03-01T00:30:28;103210.91;;;5.01;65.36
62508;BME280;48556;51.972;4.624;2023-03-01T00:32:56;103210.19;;;5.03;65.27
62508;BME280;48556;51.972;4.624;2023-03-01T00:35:52;103202.16;;;4.99;65.12
62508;BME280;48556;51.972;4.624;2023-03-01T00:38:30;103200.88;;;4.90;65.14
62508;BME280;48556;51.972;4.624;2023-03-01T00:41:16;103200.91;;;4.74;65.93
62508;BME280;48556;51.972;4.624;2023-03-01T00:43:44;103208.66;;;4.72;65.46
62508;BME280;48556;51.972;4.624;2023-03-01T00:46:13;103199.63;;;4.66;65.71
62508;BME280;48556;51.972;4.624;2023-03-01T00:48:39;103206.34;;;4.60;66.36
62508;BME280;48556;51.972;4.624;2023-03-01T00:51:24;103199.72;;;4.67;66.21
62508;BME280;48556;51.972;4.624;2023-03-01T00:54:13;103197.47;;;4.57;66.18
62508;BME280;48556;51.972;4.624;2023-03-01T00:56:49;103204.19;;;4.70;65.97
62508;BME280;48556;51.972;4.624;2023-03-01T00:59:32;103199.63;;;4.66;65.53
62508;BME280;48556;51.972;4.624;2023-03-01T01:02:00;103198.84;;;4.67;65.76
62508;BME280;48556;51.972;4.624;2023-03-01T01:04:54;103192.19;;;4.55;65.87
62508;BME280;48556;51.972;4.624;2023-03-01T01:07:36;103192.72;;;4.32;65.97
62508;BME280;48556;51.972;4.624;2023-03-01T01:10:02;103203.66;;;4.08;66.92
62508;BME280;48556;51.972;4.624;2023-03-01T01:12:44;103194.69;;;4.19;66.80
62508;BME280;48556;51.972;4.624;2023-03-01T01:15:40;103200.03;;;4.22;66.79
62508;BME280;48556;51.972;4.624;2023-03-01T01:18:44;103204.75;;;4.30;67.26
62508;BME280;48556;51.972;4.624;2023-03-01T01:21:25;103198.25;;;4.21;67.58
62508;BME280;48556;51.972;4.624;2023-03-01T01:24:03;103189.63;;;4.22;67.55
62508;BME280;48556;51.972;4.624;2023-03-01T01:26:38;103188.81;;;4.23;67.12
62508;BME280;48556;51.972;4.624;2023-03-01T01:29:05;103190.28;;;4.18;67.32
62508;BME280;48556;51.972;4.624;2023-03-01T01:31:52;103174.50;;;4.15;67.25
62508;BME280;48556;51.972;4.624;2023-03-01T01:34:39;103167.00;;;4.21;67.18
62508;BME280;48556;51.972;4.624;2023-03-01T01:37:20;103167.34;;;4.27;66.86
62508;BME280;48556;51.972;4.624;2023-03-01T01:40:03;103160.41;;;4.11;66.71
62508;BME280;48556;51.972;4.624;2023-03-01T01:42:36;103158.91;;;3.99;68.20
62508;BME280;48556;51.972;4.624;2023-03-01T01:45:25;103147.81;;;4.19;67.59
62508;BME280;48556;51.972;4.624;2023-03-01T01:47:57;103148.53;;;4.17;68.52
62508;BME280;48556;51.972;4.624;2023-03-01T01:50:44;103141.38;;;4.13;68.23
62508;BME280;48556;51.972;4.624;2023-03-01T01:53:31;103143.97;;;4.29;68.20
62508;BME280;48556;51.972;4.624;2023-03-01T01:56:01;103137.75;;;4.09;69.08
62508;BME280;48556;51.972;4.624;2023-03-01T01:58:57;103139.78;;;4.15;69.99
62508;BME280;48556;51.972;4.624;2023-03-01T02:01:30;103142.97;;;3.92;71.15
62508;BME280;48556;51.972;4.624;2023-03-01T02:03:56;103139.22;;;4.04;70.90
62508;BME280;48556;51.972;4.624;2023-03-01T02:06:46;103131.44;;;4.22;70.91
62508;BME280;48556;51.972;4.624;2023-03-01T02:09:20;103146.66;;;4.14;71.19
62508;BME280;48556;51.972;4.624;2023-03-01T02:12:03;103135.94;;;4.24;70.66
62508;BME280;48556;51.972;4.624;2023-03-01T02:14:30;103137.38;;;4.36;70.77
62508;BME280;48556;51.972;4.624;2023-03-01T02:16:55;103128.97;;;4.41;70.52
62508;BME280;48556;51.972;4.624;2023-03-01T02:22:34;103126.72;;;4.49;69.92
62508;BME280;48556;51.972;4.624;2023-03-01T02:30:23;103118.34;;;4.20;70.35
62508;BME280;48556;51.972;4.624;2023-03-01T02:33:10;103121.28;;;4.10;69.70
62508;BME280;48556;51.972;4.624;2023-03-01T02:36:00;103119.19;;;4.03;69.33
62508;BME280;48556;51.972;4.624;2023-03-01T02:38:30;103126.44;;;3.92;69.24
62508;BME280;48556;51.972;4.624;2023-03-01T02:41:16;103125.69;;;3.94;69.24
62508;BME280;48556;51.972;4.624;2023-03-01T02:44:12;103121.78;;;4.03;69.12
62508;BME280;48556;51.972;4.624;2023-03-01T02:47:06;103119.03;;;3.83;69.17
62508;BME280;48556;51.972;4.624;2023-03-01T02:49:51;103118.53;;;3.90;69.11
62508;BME280;48556;51.972;4.624;2023-03-01T02:52:30;103110.44;;;3.84;68.73
62508;BME280;48556;51.972;4.624;2023-03-01T02:55:20;103114.56;;;3.64;68.75
62508;BME280;48556;51.972;4.624;2023-03-01T02:57:56;103107.03;;;3.69;68.54
62508;BME280;48556;51.972;4.624;2023-03-01T03:00:45;103112.22;;;3.69;68.00
62508;BME280;48556;51.972;4.624;2023-03-01T03:03:20;103107.75;;;3.50;68.22
62508;BME280;48556;51.972;4.624;2023-03-01T03:06:10;103114.09;;;3.55;68.43
62508;BME280;48556;51.972;4.624;2023-03-01T03:08:56;103099.53;;;3.58;67.97
62508;BME280;48556;51.972;4.624;2023-03-01T03:11:22;103092.22;;;3.51;67.98
62508;BME280;48556;51.972;4.624;2023-03-01T03:13:57;103106.06;;;3.50;67.92
62508;BME280;48556;51.972;4.624;2023-03-01T03:16:47;103100.84;;;3.50;67.45
62508;BME280;48556;51.972;4.624;2023-03-01T03:19:15;103089.16;;;3.42;67.51
62508;BME280;48556;51.972;4.624;2023-03-01T03:22:08;103093.34;;;3.40;67.87
62508;BME280;48556;51.972;4.624;2023-03-01T03:24:49;103093.50;;;3.43;67.87
62508;BME280;48556;51.972;4.624;2023-03-01T03:27:34;103089.94;;;3.41;67.64
62508;BME280;48556;51.972;4.624;2023-03-01T03:30:17;103085.03;;;3.31;68.61
62508;BME280;48556;51.972;4.624;2023-03-01T03:33:34;103091.09;;;3.30;68.99
62508;BME280;48556;51.972;4.624;2023-03-01T03:36:30;103086.34;;;3.39;69.24
62508;BME280;48556;51.972;4.624;2023-03-01T03:39:11;103084.09;;;3.62;68.72
62508;BME280;48556;51.972;4.624;2023-03-01T03:41:56;103081.66;;;3.48;68.96
62508;BME280;48556;51.972;4.624;2023-03-01T03:44:35;103080.28;;;3.38;68.75
62508;BME280;48556;51.972;4.624;2023-03-01T03:47:33;103076.69;;;3.20;68.50
62508;BME280;48556;51.972;4.624;2023-03-01T03:50:26;103083.97;;;3.11;68.41
62508;BME280;48556;51.972;4.624;2023-03-01T03:52:56;103073.34;;;3.06;68.86
62508;BME280;48556;51.972;4.624;2023-03-01T03:55:47;103077.47;;;3.02;68.92
62508;BME280;48556;51.972;4.624;2023-03-01T03:58:35;103073.34;;;3.06;68.84
62508;BME280;48556;51.972;4.624;2023-03-01T04:01:23;103066.94;;;3.16;68.73
62508;BME280;48556;51.972;4.624;2023-03-01T04:03:49;103071.78;;;3.10;68.53
62508;BME280;48556;51.972;4.624;2023-03-01T04:06:20;103066.56;;;3.10;68.46
62508;BME280;48556;51.972;4.624;2023-03-01T04:08:46;103070.56;;;3.03;68.87
62508;BME280;48556;51.972;4.624;2023-03-01T04:11:36;103072.53;;;3.07;68.77
62508;BME280;48556;51.972;4.624;2023-03-01T04:14:10;103073.50;;;3.09;69.34
62508;BME280;48556;51.972;4.624;2023-03-01T04:16:35;103072.72;;;3.27;69.37
62508;BME280;48556;51.972;4.624;2023-03-01T04:19:16;103074.81;;;3.17;69.67
62508;BME280;48556;51.972;4.624;2023-03-01T04:21:45;103074.97;;;3.20;71.37
62508;BME280;48556;51.972;4.624;2023-03-01T04:24:11;103080.53;;;3.27;72.22
62508;BME280;48556;51.972;4.624;2023-03-01T04:26:53;103072.97;;;3.31;72.82
62508;BME280;48556;51.972;4.624;2023-03-01T04:29:19;103081.50;;;3.45;73.16
62508;BME280;48556;51.972;4.624;2023-03-01T04:31:44;103064.09;;;3.44;73.58
62508;BME280;48556;51.972;4.624;2023-03-01T04:34:24;103072.69;;;3.76;73.19
62508;BME280;48556;51.972;4.624;2023-03-01T04:36:52;103064.31;;;3.82;72.72
62508;BME280;48556;51.972;4.624;2023-03-01T04:40:07;103062.22;;;3.74;72.57
62508;BME280;48556;51.972;4.624;2023-03-01T04:42:43;103064.47;;;3.85;72.23
62508;BME280;48556;51.972;4.624;2023-03-01T04:45:09;103062.06;;;3.71;71.82
62508;BME280;48556;51.972;4.624;2023-03-01T04:47:43;103056.59;;;3.67;72.07
62508;BME280;48556;51.972;4.624;2023-03-01T04:50:20;103054.56;;;3.61;71.81
62508;BME280;48556;51.972;4.624;2023-03-01T04:53:03;103051.81;;;3.58;71.43
62508;BME280;48556;51.972;4.624;2023-03-01T04:55:34;103041.72;;;3.64;71.48
62508;BME280;48556;51.972;4.624;2023-03-01T04:58:26;103041.97;;;3.85;70.56
62508;BME280;48556;51.972;4.624;2023-03-01T05:01:24;103039.97;;;3.63;71.51
62508;BME280;48556;51.972;4.624;2023-03-01T05:04:06;103038.47;;;3.68;70.77
62508;BME280;48556;51.972;4.624;2023-03-01T05:06:54;103033.91;;;3.64;71.29
62508;BME280;48556;51.972;4.624;2023-03-01T05:09:37;103032.22;;;3.65;70.92
62508;BME280;48556;51.972;4.624;2023-03-01T05:12:26;103029.47;;;3.62;70.58
62508;BME280;48556;51.972;4.624;2023-03-01T05:14:54;103034.47;;;3.75;69.95
62508;BME280;48556;51.972;4.624;2023-03-01T05:17:19;103028.25;;;3.71;69.96
62508;BME280;48556;51.972;4.624;2023-03-01T05:20:01;103027.97;;;3.83;69.55
62508;BME280;48556;51.972;4.624;2023-03-01T05:22:26;103023.78;;;3.69;69.52
62508;BME280;48556;51.972;4.624;2023-03-01T05:24:58;103014.66;;;3.61;69.39
62508;BME280;48556;51.972;4.624;2023-03-01T05:27:23;103016.78;;;3.35;69.74
62508;BME280;48556;51.972;4.624;2023-03-01T05:29:49;103012.34;;;3.32;70.08
62508;BME280;48556;51.972;4.624;2023-03-01T05:32:14;103009.16;;;3.38;69.91
62508;BME280;48556;51.972;4.624;2023-03-01T05:34:41;103005.84;;;3.40;68.87
62508;BME280;48556;51.972;4.624;2023-03-01T05:37:12;102994.03;;;3.47;68.72
62508;BME280;48556;51.972;4.624;2023-03-01T05:39:41;102978.84;;;3.22;68.64
62508;BME280;48556;51.972;4.624;2023-03-01T05:42:10;102982.09;;;3.34;68.61
62508;BME280;48556;51.972;4.624;2023-03-01T05:44:37;102989.16;;;3.20;68.61
62508;BME280;48556;51.972;4.624;2023-03-01T05:47:19;102981.53;;;3.23;68.40
62508;BME280;48556;51.972;4.624;2023-03-01T05:50:20;102983.81;;;3.17;68.09
62508;BME280;48556;51.972;4.624;2023-03-01T05:53:05;102984.78;;;3.19;67.55
62508;BME280;48556;51.972;4.624;2023-03-01T05:55:44;102986.47;;;3.02;67.80
62508;BME280;48556;51.972;4.624;2023-03-01T05:58:20;102987.06;;;3.13;67.47
62508;BME280;48556;51.972;4.624;2023-03-01T06:03:33;102982.00;;;3.00;68.42
62508;BME280;48556;51.972;4.624;2023-03-01T06:06:05;102979.13;;;3.10;68.22
62508;BME280;48556;51.972;4.624;2023-03-01T06:08:56;102990.63;;;3.15;66.87
62508;BME280;48556;51.972;4.624;2023-03-01T06:11:40;102982.97;;;2.85;67.97
62508;BME280;48556;51.972;4.624;2023-03-01T06:14:07;102997.84;;;2.88;67.54
62508;BME280;48556;51.972;4.624;2023-03-01T06:16:33;102987.63;;;2.91;67.51
62508;BME280;48556;51.972;4.624;2023-03-01T06:18:59;102998.06;;;2.76;67.62
62508;BME280;48556;51.972;4.624;2023-03-01T06:21:29;102992.56;;;2.86;67.53
62508;BME280;48556;51.972;4.624;2023-03-01T06:24:13;102993.22;;;2.82;67.32
62508;BME280;48556;51.972;4.624;2023-03-01T06:26:44;102996.47;;;2.78;66.83
62508;BME280;48556;51.972;4.624;2023-03-01T06:29:23;103009.72;;;2.51;67.76
62508;BME280;48556;51.972;4.624;2023-03-01T06:31:49;102990.66;;;2.67;67.29
62508;BME280;48556;51.972;4.624;2023-03-01T06:34:15;103005.44;;;2.68;67.91
62508;BME280;48556;51.972;4.624;2023-03-01T06:36:41;103001.91;;;2.51;67.69
62508;BME280;48556;51.972;4.624;2023-03-01T06:39:07;103001.84;;;2.66;67.50
62508;BME280;48556;51.972;4.624;2023-03-01T06:41:38;103014.75;;;2.65;66.78
62508;BME280;48556;51.972;4.624;2023-03-01T06:44:04;103005.72;;;2.58;67.10
62508;BME280;48556;51.972;4.624;2023-03-01T06:46:29;103000.66;;;2.60;66.53
62508;BME280;48556;51.972;4.624;2023-03-01T06:48:55;103003.50;;;2.64;67.04
62508;BME280;48556;51.972;4.624;2023-03-01T06:51:21;103001.72;;;2.48;67.80
62508;BME280;48556;51.972;4.624;2023-03-01T06:53:51;103010.66;;;2.68;66.80
62508;BME280;48556;51.972;4.624;2023-03-01T06:56:17;103003.66;;;2.67;66.66
62508;BME280;48556;51.972;4.624;2023-03-01T06:59:14;103004.44;;;2.66;66.42
62508;BME280;48556;51.972;4.624;2023-03-01T07:01:53;103006.69;;;2.75;66.12
62508;BME280;48556;51.972;4.624;2023-03-01T07:04:18;103008.59;;;2.63;65.96
62508;BME280;48556;51.972;4.624;2023-03-01T07:07:02;103008.25;;;2.56;66.58
62508;BME280;48556;51.972;4.624;2023-03-01T07:09:28;103015.13;;;2.71;66.35
62508;BME280;48556;51.972;4.624;2023-03-01T07:11:54;103002.81;;;2.83;66.38
62508;BME280;48556;51.972;4.624;2023-03-01T07:14:20;103004.09;;;2.75;65.96
62508;BME280;48556;51.972;4.624;2023-03-01T07:17:05;103003.25;;;2.76;66.03
62508;BME280;48556;51.972;4.624;2023-03-01T07:19:31;103003.91;;;2.72;66.04
62508;BME280;48556;51.972;4.624;2023-03-01T07:21:57;103001.97;;;2.84;65.69
62508;BME280;48556;51.972;4.624;2023-03-01T07:24:23;103008.44;;;2.76;65.68
62508;BME280;48556;51.972;4.624;2023-03-01T07:26:49;102999.22;;;2.81;65.19
62508;BME280;48556;51.972;4.624;2023-03-01T07:29:35;103008.66;;;2.79;65.46
62508;BME280;48556;51.972;4.624;2023-03-01T07:32:04;103014.00;;;2.82;65.48
62508;BME280;48556;51.972;4.624;2023-03-01T07:34:40;103007.84;;;2.97;65.66
62508;BME280;48556;51.972;4.624;2023-03-01T07:37:06;103013.53;;;2.89;65.98
62508;BME280;48556;51.972;4.624;2023-03-01T07:39:31;103008.72;;;2.97;66.08
62508;BME280;48556;51.972;4.624;2023-03-01T07:41:59;103023.31;;;2.79;67.01
62508;BME280;48556;51.972;4.624;2023-03-01T07:44:27;103007.16;;;2.84;67.70
62508;BME280;48556;51.972;4.624;2023-03-01T07:46:53;103003.38;;;3.11;68.16
62508;BME280;48556;51.972;4.624;2023-03-01T07:49:22;103011.59;;;3.02;69.16
62508;BME280;48556;51.972;4.624;2023-03-01T07:51:47;103017.53;;;3.32;69.76
62508;BME280;48556;51.972;4.624;2023-03-01T07:54:23;103011.16;;;2.94;72.48
62508;BME280;48556;51.972;4.624;2023-03-01T07:57:18;103015.41;;;3.25;71.96
62508;BME280;48556;51.972;4.624;2023-03-01T07:59:44;103008.25;;;3.54;71.53
62508;BME280;48556;51.972;4.624;2023-03-01T08:02:10;103001.44;;;3.74;71.01
62508;BME280;48556;51.972;4.624;2023-03-01T08:04:36;103008.31;;;3.72;71.70
62508;BME280;48556;51.972;4.624;2023-03-01T08:07:05;103005.94;;;3.76;71.87
62508;BME280;48556;51.972;4.624;2023-03-01T08:09:56;102999.00;;;3.93;70.79
62508;BME280;48556;51.972;4.624;2023-03-01T08:12:23;103002.59;;;4.32;70.15
62508;BME280;48556;51.972;4.624;2023-03-01T08:15:07;102999.28;;;4.00;71.20
62508;BME280;48556;51.972;4.624;2023-03-01T08:17:36;103007.31;;;4.04;71.17
62508;BME280;48556;51.972;4.624;2023-03-01T08:20:03;103008.31;;;4.06;71.58
62508;BME280;48556;51.972;4.624;2023-03-01T08:23:09;103006.53;;;4.41;70.21
62508;BME280;48556;51.972;4.624;2023-03-01T08:25:42;103003.31;;;4.47;69.66
62508;BME280;48556;51.972;4.624;2023-03-01T08:28:08;102996.31;;;4.46;69.73
62508;BME280;48556;51.972;4.624;2023-03-01T08:30:33;102998.97;;;4.66;69.33
62508;BME280;48556;51.972;4.624;2023-03-01T08:33:07;102990.63;;;4.73;68.81
62508;BME280;48556;51.972;4.624;2023-03-01T08:35:32;102999.09;;;4.87;68.47
62508;BME280;48556;51.972;4.624;2023-03-01T08:38:08;102996.41;;;4.85;68.41
62508;BME280;48556;51.972;4.624;2023-03-01T08:40:34;102993.75;;;5.03;68.14
62508;BME280;48556;51.972;4.624;2023-03-01T08:43:33;102986.13;;;5.08;67.16
62508;BME280;48556;51.972;4.624;2023-03-01T08:46:40;102990.22;;;5.21;66.67
62508;BME280;48556;51.972;4.624;2023-03-01T08:49:28;102994.94;;;5.29;66.16
62508;BME280;48556;51.972;4.624;2023-03-01T08:52:05;102989.97;;;5.36;65.91
62508;BME280;48556;51.972;4.624;2023-03-01T08:54:43;102984.91;;;5.39;62.88
62508;BME280;48556;51.972;4.624;2023-03-01T08:57:15;102982.84;;;5.31;60.71
62508;BME280;48556;51.972;4.624;2023-03-01T08:59:49;102996.03;;;5.15;60.56
62508;BME280;48556;51.972;4.624;2023-03-01T09:02:17;102988.72;;;5.08;59.89
62508;BME280;48556;51.972;4.624;2023-03-01T09:04:47;102985.03;;;5.42;57.26
62508;BME280;48556;51.972;4.624;2023-03-01T09:07:20;102980.03;;;5.68;57.06
62508;BME280;48556;51.972;4.624;2023-03-01T09:09:45;102977.44;;;5.68;56.96
62508;BME280;48556;51.972;4.624;2023-03-01T09:12:11;102975.63;;;5.45;57.61
62508;BME280;48556;51.972;4.624;2023-03-01T09:14:41;102975.16;;;5.75;57.05
62508;BME280;48556;51.972;4.624;2023-03-01T09:17:11;102973.38;;;5.95;56.63
62508;BME280;48556;51.972;4.624;2023-03-01T09:19:59;102970.06;;;5.78;56.41
62508;BME280;48556;51.972;4.624;2023-03-01T09:22:35;102962.31;;;6.01;55.90
62508;BME280;48556;51.972;4.624;2023-03-01T09:25:14;102966.34;;;5.94;55.92
62508;BME280;48556;51.972;4.624;2023-03-01T09:28:04;102957.75;;;5.76;56.25
62508;BME280;48556;51.972;4.624;2023-03-01T09:30:58;102959.69;;;5.80;56.06
62508;BME280;48556;51.972;4.624;2023-03-01T09:34:14;102958.41;;;6.12;54.85
62508;BME280;48556;51.972;4.624;2023-03-01T09:37:00;102954.78;;;5.67;55.49
62508;BME280;48556;51.972;4.624;2023-03-01T09:39:57;102954.63;;;5.42;55.68
62508;BME280;48556;51.972;4.624;2023-03-01T09:46:18;102956.50;;;5.87;54.40
62508;BME280;48556;51.972;4.624;2023-03-01T09:49:14;102959.34;;;6.13;54.42
62508;BME280;48556;51.972;4.624;2023-03-01T09:55:04;102956.50;;;5.87;52.35
62508;BME280;48556;51.972;4.624;2023-03-01T10:04:48;102945.88;;;6.04;52.42
62508;BME280;48556;51.972;4.624;2023-03-01T10:10:49;102947.44;;;6.89;50.58
62508;BME280;48556;51.972;4.624;2023-03-01T10:19:27;102926.28;;;6.83;50.93
62508;BME280;48556;51.972;4.624;2023-03-01T10:22:28;102934.19;;;6.60;51.53
62508;BME280;48556;51.972;4.624;2023-03-01T10:25:36;102925.28;;;6.32;52.29
62508;BME280;48556;51.972;4.624;2023-03-01T10:31:57;102912.03;;;6.75;52.57
62508;BME280;48556;51.972;4.624;2023-03-01T10:34:30;102911.53;;;6.85;52.46
62508;BME280;48556;51.972;4.624;2023-03-01T10:37:21;102907.38;;;6.66;53.70
62508;BME280;48556;51.972;4.624;2023-03-01T10:40:08;102922.53;;;6.52;53.67
62508;BME280;48556;51.972;4.624;2023-03-01T10:43:01;102918.13;;;6.51;53.81
62508;BME280;48556;51.972;4.624;2023-03-01T10:48:19;102913.97;;;7.05;50.61
62508;BME280;48556;51.972;4.624;2023-03-01T10:50:51;102905.97;;;7.00;50.64
62508;BME280;48556;51.972;4.624;2023-03-01T10:53:36;102896.72;;;6.61;51.48
62508;BME280;48556;51.972;4.624;2023-03-01T10:57:09;102893.13;;;6.82;50.72
62508;BME280;48556;51.972;4.624;2023-03-01T11:00:21;102887.53;;;7.21;49.95
62508;BME280;48556;51.972;4.624;2023-03-01T11:03:02;102879.19;;;7.31;50.46
62508;BME280;48556;51.972;4.624;2023-03-01T11:05:29;102878.31;;;7.07;50.59
62508;BME280;48556;51.972;4.624;2023-03-01T11:08:00;102877.78;;;6.67;51.41
62508;BME280;48556;51.972;4.624;2023-03-01T11:10:34;102871.53;;;6.63;52.15
62508;BME280;48556;51.972;4.624;2023-03-01T11:13:11;102864.78;;;6.69;52.42
62508;BME280;48556;51.972;4.624;2023-03-01T11:15:40;102866.31;;;7.12;51.04
62508;BME280;48556;51.972;4.624;2023-03-01T11:18:21;102854.16;;;7.14;50.49
62508;BME280;48556;51.972;4.624;2023-03-01T11:20:48;102852.28;;;7.35;51.29
62508;BME280;48556;51.972;4.624;2023-03-01T11:23:54;102853.53;;;7.21;50.48
62508;BME280;48556;51.972;4.624;2023-03-01T11:26:24;102844.75;;;7.19;49.44
62508;BME280;48556;51.972;4.624;2023-03-01T11:28:55;102844.53;;;7.66;48.42
62508;BME280;48556;51.972;4.624;2023-03-01T11:31:25;102848.84;;;7.91;47.74
62508;BME280;48556;51.972;4.624;2023-03-01T11:34:32;102857.47;;;8.17;46.44
62508;BME280;48556;51.972;4.624;2023-03-01T11:38:12;102850.25;;;7.54;47.24
62508;BME280;48556;51.972;4.624;2023-03-01T11:43:32;102838.09;;;8.11;46.32
62508;BME280;48556;51.972;4.624;2023-03-01T11:49:41;102843.78;;;8.87;43.54
62508;BME280;48556;51.972;4.624;2023-03-01T11:52:24;102837.16;;;9.71;42.36
62508;BME280;48556;51.972;4.624;2023-03-01T12:01:24;102827.91;;;12.35;34.26
62508;BME280;48556;51.972;4.624;2023-03-01T12:04:24;102813.34;;;13.66;32.10
62508;BME280;48556;51.972;4.624;2023-03-01T12:07:46;102809.44;;;14.78;30.99
62508;BME280;48556;51.972;4.624;2023-03-01T12:10:50;102814.78;;;15.08;29.30
62508;BME280;48556;51.972;4.624;2023-03-01T12:13:36;102803.25;;;15.67;28.21
62508;BME280;48556;51.972;4.624;2023-03-01T12:22:26;102799.34;;;16.69;25.98
62508;BME280;48556;51.972;4.624;2023-03-01T12:31:38;102778.75;;;19.18;23.63
62508;BME280;48556;51.972;4.624;2023-03-01T12:37:36;102775.63;;;18.93;23.29
62508;BME280;48556;51.972;4.624;2023-03-01T12:43:26;102765.38;;;20.15;22.12
62508;BME280;48556;51.972;4.624;2023-03-01T12:53:00;102764.66;;;20.07;21.35
62508;BME280;48556;51.972;4.624;2023-03-01T12:58:32;102772.84;;;20.79;21.58
62508;BME280;48556;51.972;4.624;2023-03-01T13:02:03;102766.94;;;21.37;20.45
62508;BME280;48556;51.972;4.624;2023-03-01T13:08:36;102757.31;;;23.59;19.19
62508;BME280;48556;51.972;4.624;2023-03-01T13:11:27;102758.75;;;23.19;18.53
62508;BME280;48556;51.972;4.624;2023-03-01T13:19:06;102736.06;;;24.02;17.60
62508;BME280;48556;51.972;4.624;2023-03-01T13:22:43;102740.06;;;22.32;19.20
62508;BME280;48556;51.972;4.624;2023-03-01T13:28:59;102719.75;;;23.34;18.32
62508;BME280;48556;51.972;4.624;2023-03-01T13:49:22;102694.16;;;24.20;17.39
62508;BME280;48556;51.972;4.624;2023-03-01T13:59:04;102675.75;;;25.37;16.44
62508;BME280;48556;51.972;4.624;2023-03-01T14:02:11;102666.34;;;25.06;16.21
62508;BME280;48556;51.972;4.624;2023-03-01T14:05:00;102664.94;;;25.96;15.62
62508;BME280;48556;51.972;4.624;2023-03-01T14:07:27;102660.78;;;25.51;15.92
62508;BME280;48556;51.972;4.624;2023-03-01T14:10:22;102669.97;;;23.50;17.22
62508;BME280;48556;51.972;4.624;2023-03-01T14:13:17;102650.84;;;23.09;17.96
62508;BME280;48556;51.972;4.624;2023-03-01T14:19:19;102648.34;;;24.23;17.39
62508;BME280;48556;51.972;4.624;2023-03-01T14:24:58;102629.16;;;23.64;17.68
62508;BME280;48556;51.972;4.624;2023-03-01T14:28:04;102631.94;;;22.62;18.47
62508;BME280;48556;51.972;4.624;2023-03-01T14:30:43;102617.69;;;20.83;20.17
62508;BME280;48556;51.972;4.624;2023-03-01T14:33:35;102615.78;;;22.90;18.09
62508;BME280;48556;51.972;4.624;2023-03-01T14:36:39;102602.03;;;22.99;18.49
62508;BME280;48556;51.972;4.624;2023-03-01T14:39:18;102590.47;;;24.36;17.15
62508;BME280;48556;51.972;4.624;2023-03-01T14:41:45;102600.19;;;24.39;17.30
62508;BME280;48556;51.972;4.624;2023-03-01T14:44:22;102596.88;;;23.66;17.58
62508;BME280;48556;51.972;4.624;2023-03-01T14:47:21;102596.03;;;23.18;17.89
62508;BME280;48556;51.972;4.624;2023-03-01T14:50:15;102597.66;;;22.18;18.59
62508;BME280;48556;51.972;4.624;2023-03-01T14:52:48;102592.13;;;23.27;18.33
62508;BME280;48556;51.972;4.624;2023-03-01T14:57:52;102590.38;;;21.95;18.97
62508;BME280;48556;51.972;4.624;2023-03-01T15:00:50;102591.53;;;20.26;21.00
62508;BME280;48556;51.972;4.624;2023-03-01T15:03:36;102585.22;;;19.08;22.94
62508;BME280;48556;51.972;4.624;2023-03-01T15:06:28;102587.78;;;18.66;22.97
62508;BME280;48556;51.972;4.624;2023-03-01T15:09:19;102576.94;;;17.63;24.15
62508;BME280;48556;51.972;4.624;2023-03-01T15:11:59;102574.31;;;16.83;25.39
62508;BME280;48556;51.972;4.624;2023-03-01T15:14:52;102568.06;;;15.83;26.70
62508;BME280;48556;51.972;4.624;2023-03-01T15:17:59;102566.50;;;15.42;27.95
62508;BME280;48556;51.972;4.624;2023-03-01T15:20:51;102567.59;;;14.41;29.53
62508;BME280;48556;51.972;4.624;2023-03-01T15:23:29;102568.47;;;14.57;28.55
62508;BME280;48556;51.972;4.624;2023-03-01T15:26:00;102557.84;;;15.01;28.41
62508;BME280;48556;51.972;4.624;2023-03-01T15:29:02;102558.78;;;14.54;29.24
62508;BME280;48556;51.972;4.624;2023-03-01T15:31:36;102559.69;;;14.48;28.78
62508;BME280;48556;51.972;4.624;2023-03-01T15:34:31;102555.84;;;15.58;28.36
62508;BME280;48556;51.972;4.624;2023-03-01T15:37:01;102559.53;;;15.23;28.32
62508;BME280;48556;51.972;4.624;2023-03-01T15:39:57;102553.50;;;14.25;29.11
62508;BME280;48556;51.972;4.624;2023-03-01T15:45:22;102559.56;;;13.49;30.54
62508;BME280;48556;51.972;4.624;2023-03-01T15:48:15;102556.53;;;12.78;31.74
62508;BME280;48556;51.972;4.624;2023-03-01T15:50:54;102556.28;;;12.43;32.56
62508;BME280;48556;51.972;4.624;2023-03-01T15:53:22;102555.16;;;12.14;33.42
62508;BME280;48556;51.972;4.624;2023-03-01T15:55:47;102559.50;;;12.08;32.73
62508;BME280;48556;51.972;4.624;2023-03-01T15:58:19;102550.72;;;12.10;33.14
62508;BME280;48556;51.972;4.624;2023-03-01T16:01:14;102562.06;;;11.25;35.05
62508;BME280;48556;51.972;4.624;2023-03-01T16:04:31;102561.28;;;11.32;34.54
62508;BME280;48556;51.972;4.624;2023-03-01T16:07:31;102553.44;;;10.72;36.14
62508;BME280;48556;51.972;4.624;2023-03-01T16:10:12;102547.50;;;10.84;36.16
62508;BME280;48556;51.972;4.624;2023-03-01T16:12:38;102540.41;;;10.25;37.55
62508;BME280;48556;51.972;4.624;2023-03-01T16:15:20;102539.72;;;10.35;37.50
62508;BME280;48556;51.972;4.624;2023-03-01T16:17:52;102536.97;;;10.29;37.37